This is the latest recevied weather packets stored in our database for station/object HS5SQI-2. If no packets are shown the sender has not sent any weather packets the latest 10 day(s).
| Time | Temp. | Humidity | Pressure | Rain* | Wind** | Luminosity | Snow |
|---|---|---|---|---|---|---|---|
| 1777504063 | 32.22° C | 77% | 1007 hPa | - | - | 0 W/m² | - |
| 1777503439 | 32.22° C | 75% | 1007 hPa | - | - | 0 W/m² | - |
| 1777502816 | 31.67° C | 79% | 1007 hPa | - | - | 0 W/m² | - |
| 1777502193 | 32.22° C | 75% | 1007 hPa | - | - | 0 W/m² | - |
| 1777501570 | 32.78° C | 74% | 1007 hPa | - | - | 0 W/m² | - |
| 1777500945 | 32.22° C | 75% | 1007 hPa | - | - | 0 W/m² | - |
| 1777500322 | 32.78° C | 75% | 1007 hPa | - | - | 0 W/m² | - |
| 1777499698 | 32.22° C | 76% | 1006 hPa | - | - | 0 W/m² | - |
| 1777499073 | 31.67° C | 78% | 1006 hPa | - | - | 0 W/m² | - |
| 1777498450 | 31.67° C | 78% | 1006 hPa | - | - | 0 W/m² | - |
| 1777497825 | 31.11° C | 78% | 1006 hPa | - | - | 0 W/m² | - |
| 1777497202 | 31.67° C | 78% | 1006 hPa | - | - | 0 W/m² | - |
| 1777496578 | 32.22° C | 75% | 1005 hPa | - | - | 0 W/m² | - |
| 1777495955 | 31.11° C | 79% | 1005 hPa | - | - | 0 W/m² | - |
| 1777495331 | 32.78° C | 73% | 1005 hPa | - | - | 0 W/m² | - |
| 1777494707 | 32.22° C | 74% | 1005 hPa | - | - | 0 W/m² | - |
| 1777494082 | 32.22° C | 74% | 1005 hPa | - | - | 0 W/m² | - |
| 1777493458 | 32.22° C | 74% | 1005 hPa | - | - | 0 W/m² | - |
| 1777492835 | 31.67° C | 75% | 1005 hPa | - | - | 0 W/m² | - |
| 1777492213 | 31.67° C | 75% | 1005 hPa | - | - | 0 W/m² | - |
| 1777491591 | 32.78° C | 72% | 1005 hPa | - | - | 0 W/m² | - |
| 1777490967 | 32.78° C | 71% | 1005 hPa | - | - | 0 W/m² | - |
| 1777490344 | 31.67° C | 75% | 1005 hPa | - | - | 0 W/m² | - |
| 1777489721 | 32.22° C | 73% | 1005 hPa | - | - | 0 W/m² | - |
| 1777489098 | 32.22° C | 73% | 1006 hPa | - | - | 0 W/m² | - |
* Rain since midnight (hover to see other rain measurements)
** Current wind speed in m/s (hover to see current wind gust speed)